sensor_id;sensor_type;location;lat;lon;timestamp;P1;durP1;ratioP1;P2;durP2;ratioP2
6537;SDS011;3302;52.508;13.454;2023-07-08T00:00:39;12.87;;;9.80;;
6537;SDS011;3302;52.508;13.454;2023-07-08T00:03:05;9.10;;;7.03;;
6537;SDS011;3302;52.508;13.454;2023-07-08T00:05:31;10.87;;;7.53;;
6537;SDS011;3302;52.508;13.454;2023-07-08T00:07:57;5.70;;;4.95;;
6537;SDS011;3302;52.508;13.454;2023-07-08T00:10:24;5.73;;;4.30;;
6537;SDS011;3302;52.508;13.454;2023-07-08T00:12:52;6.47;;;4.47;;
6537;SDS011;3302;52.508;13.454;2023-07-08T00:15:21;7.90;;;5.20;;
6537;SDS011;3302;52.508;13.454;2023-07-08T00:17:50;14.32;;;8.25;;
6537;SDS011;3302;52.508;13.454;2023-07-08T00:20:17;10.80;;;7.47;;
6537;SDS011;3302;52.508;13.454;2023-07-08T00:22:47;12.38;;;7.38;;
6537;SDS011;3302;52.508;13.454;2023-07-08T00:25:18;6.68;;;5.68;;
6537;SDS011;3302;52.508;13.454;2023-07-08T00:27:45;10.93;;;6.80;;
6537;SDS011;3302;52.508;13.454;2023-07-08T00:30:18;12.43;;;7.97;;
6537;SDS011;3302;52.508;13.454;2023-07-08T00:32:44;8.90;;;6.60;;
6537;SDS011;3302;52.508;13.454;2023-07-08T00:35:10;6.13;;;5.53;;
6537;SDS011;3302;52.508;13.454;2023-07-08T00:37:36;5.47;;;4.60;;
6537;SDS011;3302;52.508;13.454;2023-07-08T00:40:11;8.57;;;5.67;;
6537;SDS011;3302;52.508;13.454;2023-07-08T00:42:43;6.73;;;4.70;;
6537;SDS011;3302;52.508;13.454;2023-07-08T00:45:14;7.97;;;4.67;;
6537;SDS011;3302;52.508;13.454;2023-07-08T00:48:12;5.07;;;4.37;;
6537;SDS011;3302;52.508;13.454;2023-07-08T00:50:50;4.50;;;4.03;;
6537;SDS011;3302;52.508;13.454;2023-07-08T00:55:59;5.70;;;4.30;;
6537;SDS011;3302;52.508;13.454;2023-07-08T00:58:39;6.27;;;4.77;;
6537;SDS011;3302;52.508;13.454;2023-07-08T01:01:12;6.10;;;4.40;;
6537;SDS011;3302;52.508;13.454;2023-07-08T01:03:41;5.27;;;4.17;;
6537;SDS011;3302;52.508;13.454;2023-07-08T01:06:14;4.50;;;4.00;;
6537;SDS011;3302;52.508;13.454;2023-07-08T01:08:41;4.80;;;3.63;;
6537;SDS011;3302;52.508;13.454;2023-07-08T01:11:07;4.83;;;3.83;;
6537;SDS011;3302;52.508;13.454;2023-07-08T01:13:35;4.40;;;4.00;;
6537;SDS011;3302;52.508;13.454;2023-07-08T01:16:06;4.80;;;4.10;;
6537;SDS011;3302;52.508;13.454;2023-07-08T01:18:33;4.20;;;3.80;;
6537;SDS011;3302;52.508;13.454;2023-07-08T01:23:32;3.77;;;3.20;;
6537;SDS011;3302;52.508;13.454;2023-07-08T01:26:00;4.43;;;3.30;;
6537;SDS011;3302;52.508;13.454;2023-07-08T01:28:26;5.67;;;4.23;;
6537;SDS011;3302;52.508;13.454;2023-07-08T01:30:53;5.10;;;4.07;;
6537;SDS011;3302;52.508;13.454;2023-07-08T01:33:20;5.33;;;3.77;;
6537;SDS011;3302;52.508;13.454;2023-07-08T01:35:50;4.97;;;4.10;;
6537;SDS011;3302;52.508;13.454;2023-07-08T01:38:18;5.07;;;3.43;;
6537;SDS011;3302;52.508;13.454;2023-07-08T01:40:53;4.00;;;3.57;;
6537;SDS011;3302;52.508;13.454;2023-07-08T01:43:20;5.77;;;3.63;;
6537;SDS011;3302;52.508;13.454;2023-07-08T01:45:46;7.47;;;3.60;;
6537;SDS011;3302;52.508;13.454;2023-07-08T01:48:14;5.77;;;3.50;;
6537;SDS011;3302;52.508;13.454;2023-07-08T01:53:17;4.00;;;3.53;;
6537;SDS011;3302;52.508;13.454;2023-07-08T01:55:46;5.70;;;3.43;;
6537;SDS011;3302;52.508;13.454;2023-07-08T01:58:12;3.93;;;3.53;;
6537;SDS011;3302;52.508;13.454;2023-07-08T02:00:38;4.83;;;3.53;;
6537;SDS011;3302;52.508;13.454;2023-07-08T02:03:04;4.10;;;3.23;;
6537;SDS011;3302;52.508;13.454;2023-07-08T02:05:29;3.77;;;3.10;;
6537;SDS011;3302;52.508;13.454;2023-07-08T02:07:55;4.07;;;3.67;;
6537;SDS011;3302;52.508;13.454;2023-07-08T02:10:21;3.53;;;3.23;;
6537;SDS011;3302;52.508;13.454;2023-07-08T02:12:47;4.87;;;3.43;;
6537;SDS011;3302;52.508;13.454;2023-07-08T02:15:13;3.80;;;3.40;;
6537;SDS011;3302;52.508;13.454;2023-07-08T02:17:39;3.57;;;3.27;;
6537;SDS011;3302;52.508;13.454;2023-07-08T02:20:04;4.23;;;3.37;;
6537;SDS011;3302;52.508;13.454;2023-07-08T02:22:31;4.93;;;3.70;;
6537;SDS011;3302;52.508;13.454;2023-07-08T02:24:56;3.93;;;3.37;;
6537;SDS011;3302;52.508;13.454;2023-07-08T02:27:22;4.50;;;3.43;;
6537;SDS011;3302;52.508;13.454;2023-07-08T02:29:48;7.07;;;3.63;;
6537;SDS011;3302;52.508;13.454;2023-07-08T02:32:14;8.33;;;6.00;;
6537;SDS011;3302;52.508;13.454;2023-07-08T02:34:39;8.60;;;6.17;;
6537;SDS011;3302;52.508;13.454;2023-07-08T02:37:06;8.30;;;6.17;;
6537;SDS011;3302;52.508;13.454;2023-07-08T02:39:32;7.33;;;5.17;;
6537;SDS011;3302;52.508;13.454;2023-07-08T02:41:58;10.80;;;4.97;;
6537;SDS011;3302;52.508;13.454;2023-07-08T02:44:23;5.67;;;4.90;;
6537;SDS011;3302;52.508;13.454;2023-07-08T02:46:51;5.70;;;4.47;;
6537;SDS011;3302;52.508;13.454;2023-07-08T02:49:17;6.73;;;4.80;;
6537;SDS011;3302;52.508;13.454;2023-07-08T02:51:43;8.00;;;4.80;;
6537;SDS011;3302;52.508;13.454;2023-07-08T02:54:08;8.47;;;4.57;;
6537;SDS011;3302;52.508;13.454;2023-07-08T02:56:34;5.37;;;4.37;;
6537;SDS011;3302;52.508;13.454;2023-07-08T02:59:00;6.03;;;4.80;;
6537;SDS011;3302;52.508;13.454;2023-07-08T03:01:25;7.87;;;4.77;;
6537;SDS011;3302;52.508;13.454;2023-07-08T03:03:51;8.17;;;5.03;;
6537;SDS011;3302;52.508;13.454;2023-07-08T03:06:21;9.60;;;5.00;;
6537;SDS011;3302;52.508;13.454;2023-07-08T03:08:47;5.27;;;4.13;;
6537;SDS011;3302;52.508;13.454;2023-07-08T03:11:14;8.77;;;3.70;;
6537;SDS011;3302;52.508;13.454;2023-07-08T03:13:39;6.07;;;4.10;;
6537;SDS011;3302;52.508;13.454;2023-07-08T03:16:05;7.77;;;4.40;;
6537;SDS011;3302;52.508;13.454;2023-07-08T03:18:37;5.83;;;4.20;;
6537;SDS011;3302;52.508;13.454;2023-07-08T03:21:11;7.60;;;3.93;;
6537;SDS011;3302;52.508;13.454;2023-07-08T03:23:38;4.37;;;3.60;;
6537;SDS011;3302;52.508;13.454;2023-07-08T03:26:04;5.17;;;3.90;;
6537;SDS011;3302;52.508;13.454;2023-07-08T03:28:30;4.03;;;3.63;;
6537;SDS011;3302;52.508;13.454;2023-07-08T03:30:56;5.70;;;4.03;;
6537;SDS011;3302;52.508;13.454;2023-07-08T03:33:21;4.53;;;3.83;;
6537;SDS011;3302;52.508;13.454;2023-07-08T03:35:47;6.60;;;4.27;;
6537;SDS011;3302;52.508;13.454;2023-07-08T03:38:14;4.07;;;3.63;;
6537;SDS011;3302;52.508;13.454;2023-07-08T03:40:40;4.67;;;4.10;;
6537;SDS011;3302;52.508;13.454;2023-07-08T03:43:05;6.17;;;4.10;;
6537;SDS011;3302;52.508;13.454;2023-07-08T03:45:31;4.63;;;4.03;;
6537;SDS011;3302;52.508;13.454;2023-07-08T03:47:57;5.93;;;4.23;;
6537;SDS011;3302;52.508;13.454;2023-07-08T03:50:24;4.10;;;3.70;;
6537;SDS011;3302;52.508;13.454;2023-07-08T03:52:52;5.07;;;3.93;;
6537;SDS011;3302;52.508;13.454;2023-07-08T03:55:19;4.73;;;4.13;;
6537;SDS011;3302;52.508;13.454;2023-07-08T03:57:45;6.23;;;3.93;;
6537;SDS011;3302;52.508;13.454;2023-07-08T04:00:11;5.27;;;4.77;;
6537;SDS011;3302;52.508;13.454;2023-07-08T04:02:39;5.93;;;4.70;;
6537;SDS011;3302;52.508;13.454;2023-07-08T04:05:06;5.97;;;4.90;;
6537;SDS011;3302;52.508;13.454;2023-07-08T04:07:33;9.50;;;4.30;;
6537;SDS011;3302;52.508;13.454;2023-07-08T04:09:59;6.77;;;4.50;;
6537;SDS011;3302;52.508;13.454;2023-07-08T04:12:25;7.03;;;4.00;;
6537;SDS011;3302;52.508;13.454;2023-07-08T04:14:52;7.90;;;4.80;;
6537;SDS011;3302;52.508;13.454;2023-07-08T04:17:17;5.07;;;4.47;;
6537;SDS011;3302;52.508;13.454;2023-07-08T04:19:44;7.00;;;4.67;;
6537;SDS011;3302;52.508;13.454;2023-07-08T04:22:10;7.23;;;4.10;;
6537;SDS011;3302;52.508;13.454;2023-07-08T04:24:36;5.70;;;3.93;;
6537;SDS011;3302;52.508;13.454;2023-07-08T04:27:02;4.40;;;3.83;;
6537;SDS011;3302;52.508;13.454;2023-07-08T04:29:28;5.87;;;3.47;;
6537;SDS011;3302;52.508;13.454;2023-07-08T04:31:54;3.70;;;3.17;;
6537;SDS011;3302;52.508;13.454;2023-07-08T04:34:20;3.20;;;2.90;;
6537;SDS011;3302;52.508;13.454;2023-07-08T04:36:46;6.57;;;4.07;;
6537;SDS011;3302;52.508;13.454;2023-07-08T04:39:12;4.70;;;3.63;;
6537;SDS011;3302;52.508;13.454;2023-07-08T04:41:38;4.30;;;3.10;;
6537;SDS011;3302;52.508;13.454;2023-07-08T04:44:09;4.67;;;3.20;;
6537;SDS011;3302;52.508;13.454;2023-07-08T04:46:52;4.40;;;3.20;;
6537;SDS011;3302;52.508;13.454;2023-07-08T04:49:21;3.37;;;3.00;;
6537;SDS011;3302;52.508;13.454;2023-07-08T04:51:48;5.10;;;3.83;;
6537;SDS011;3302;52.508;13.454;2023-07-08T04:54:15;9.03;;;6.63;;
6537;SDS011;3302;52.508;13.454;2023-07-08T04:56:45;9.43;;;5.50;;
6537;SDS011;3302;52.508;13.454;2023-07-08T04:59:13;7.70;;;4.07;;
6537;SDS011;3302;52.508;13.454;2023-07-08T05:01:41;6.53;;;3.40;;
6537;SDS011;3302;52.508;13.454;2023-07-08T05:04:07;6.77;;;3.50;;
6537;SDS011;3302;52.508;13.454;2023-07-08T05:06:34;4.47;;;3.47;;
6537;SDS011;3302;52.508;13.454;2023-07-08T05:09:00;5.03;;;3.60;;
6537;SDS011;3302;52.508;13.454;2023-07-08T05:11:27;4.93;;;4.00;;
6537;SDS011;3302;52.508;13.454;2023-07-08T05:13:53;5.87;;;3.60;;
6537;SDS011;3302;52.508;13.454;2023-07-08T05:16:20;4.13;;;3.50;;
6537;SDS011;3302;52.508;13.454;2023-07-08T05:18:46;5.77;;;3.50;;
6537;SDS011;3302;52.508;13.454;2023-07-08T05:21:12;4.30;;;3.20;;
6537;SDS011;3302;52.508;13.454;2023-07-08T05:23:38;5.33;;;3.53;;
6537;SDS011;3302;52.508;13.454;2023-07-08T05:26:04;4.07;;;2.90;;
6537;SDS011;3302;52.508;13.454;2023-07-08T05:28:32;4.37;;;3.00;;
6537;SDS011;3302;52.508;13.454;2023-07-08T05:30:59;5.30;;;3.40;;
6537;SDS011;3302;52.508;13.454;2023-07-08T05:33:25;4.30;;;2.90;;
6537;SDS011;3302;52.508;13.454;2023-07-08T05:35:53;3.77;;;3.37;;
6537;SDS011;3302;52.508;13.454;2023-07-08T05:38:19;3.90;;;3.00;;
6537;SDS011;3302;52.508;13.454;2023-07-08T05:40:49;6.87;;;3.00;;
6537;SDS011;3302;52.508;13.454;2023-07-08T05:43:16;4.27;;;2.90;;
6537;SDS011;3302;52.508;13.454;2023-07-08T05:45:43;3.80;;;3.00;;
6537;SDS011;3302;52.508;13.454;2023-07-08T05:48:09;4.23;;;2.73;;
6537;SDS011;3302;52.508;13.454;2023-07-08T05:50:35;5.10;;;3.00;;
6537;SDS011;3302;52.508;13.454;2023-07-08T05:53:00;3.77;;;2.80;;
6537;SDS011;3302;52.508;13.454;2023-07-08T05:55:26;5.47;;;3.00;;
6537;SDS011;3302;52.508;13.454;2023-07-08T05:57:52;4.50;;;3.33;;
6537;SDS011;3302;52.508;13.454;2023-07-08T06:00:18;3.80;;;3.27;;
6537;SDS011;3302;52.508;13.454;2023-07-08T06:02:44;3.37;;;3.00;;
6537;SDS011;3302;52.508;13.454;2023-07-08T06:05:09;4.47;;;3.10;;
6537;SDS011;3302;52.508;13.454;2023-07-08T06:07:35;3.40;;;2.80;;
6537;SDS011;3302;52.508;13.454;2023-07-08T06:10:01;4.20;;;3.17;;
6537;SDS011;3302;52.508;13.454;2023-07-08T06:12:27;5.23;;;2.80;;
6537;SDS011;3302;52.508;13.454;2023-07-08T06:14:56;3.40;;;3.10;;
6537;SDS011;3302;52.508;13.454;2023-07-08T06:17:22;3.07;;;2.77;;
6537;SDS011;3302;52.508;13.454;2023-07-08T06:19:48;3.20;;;2.70;;
6537;SDS011;3302;52.508;13.454;2023-07-08T06:22:14;8.13;;;3.23;;
6537;SDS011;3302;52.508;13.454;2023-07-08T06:24:40;4.55;;;2.97;;
6537;SDS011;3302;52.508;13.454;2023-07-08T06:27:06;3.77;;;2.67;;
6537;SDS011;3302;52.508;13.454;2023-07-08T06:29:32;4.93;;;3.23;;
6537;SDS011;3302;52.508;13.454;2023-07-08T06:31:59;3.20;;;2.63;;
6537;SDS011;3302;52.508;13.454;2023-07-08T06:34:25;4.30;;;3.20;;
6537;SDS011;3302;52.508;13.454;2023-07-08T06:36:51;3.37;;;3.03;;
6537;SDS011;3302;52.508;13.454;2023-07-08T06:39:17;3.13;;;2.80;;
6537;SDS011;3302;52.508;13.454;2023-07-08T06:41:43;3.13;;;2.83;;
6537;SDS011;3302;52.508;13.454;2023-07-08T06:44:10;3.40;;;3.10;;
6537;SDS011;3302;52.508;13.454;2023-07-08T06:46:35;4.13;;;3.17;;
6537;SDS011;3302;52.508;13.454;2023-07-08T06:49:01;3.00;;;2.70;;
6537;SDS011;3302;52.508;13.454;2023-07-08T06:51:27;4.30;;;3.30;;
6537;SDS011;3302;52.508;13.454;2023-07-08T06:53:54;6.97;;;3.00;;
6537;SDS011;3302;52.508;13.454;2023-07-08T06:56:20;3.53;;;3.10;;
6537;SDS011;3302;52.508;13.454;2023-07-08T06:58:45;4.15;;;2.95;;
6537;SDS011;3302;52.508;13.454;2023-07-08T07:01:11;3.30;;;3.00;;
6537;SDS011;3302;52.508;13.454;2023-07-08T07:03:37;5.15;;;3.20;;
6537;SDS011;3302;52.508;13.454;2023-07-08T07:06:03;3.20;;;2.88;;
6537;SDS011;3302;52.508;13.454;2023-07-08T07:08:29;4.13;;;3.17;;
6537;SDS011;3302;52.508;13.454;2023-07-08T07:10:55;3.30;;;2.93;;
6537;SDS011;3302;52.508;13.454;2023-07-08T07:13:21;3.20;;;2.83;;
6537;SDS011;3302;52.508;13.454;2023-07-08T07:15:49;3.47;;;3.17;;
6537;SDS011;3302;52.508;13.454;2023-07-08T07:18:15;5.22;;;3.15;;
6537;SDS011;3302;52.508;13.454;2023-07-08T07:20:46;4.78;;;3.35;;
6537;SDS011;3302;52.508;13.454;2023-07-08T07:23:15;9.07;;;8.15;;
6537;SDS011;3302;52.508;13.454;2023-07-08T07:25:41;3.30;;;3.00;;
6537;SDS011;3302;52.508;13.454;2023-07-08T07:28:07;3.88;;;3.00;;
6537;SDS011;3302;52.508;13.454;2023-07-08T07:30:33;6.20;;;3.60;;
6537;SDS011;3302;52.508;13.454;2023-07-08T07:32:59;3.28;;;2.85;;
6537;SDS011;3302;52.508;13.454;2023-07-08T07:35:26;3.28;;;2.95;;
6537;SDS011;3302;52.508;13.454;2023-07-08T07:37:52;4.40;;;3.55;;
6537;SDS011;3302;52.508;13.454;2023-07-08T07:40:17;5.22;;;3.30;;
6537;SDS011;3302;52.508;13.454;2023-07-08T07:42:45;3.70;;;3.30;;
6537;SDS011;3302;52.508;13.454;2023-07-08T07:45:11;3.35;;;3.05;;
6537;SDS011;3302;52.508;13.454;2023-07-08T07:47:37;4.07;;;3.40;;
6537;SDS011;3302;52.508;13.454;2023-07-08T07:50:04;3.67;;;2.85;;
6537;SDS011;3302;52.508;13.454;2023-07-08T07:52:31;3.33;;;3.03;;
6537;SDS011;3302;52.508;13.454;2023-07-08T07:54:57;5.43;;;3.33;;
6537;SDS011;3302;52.508;13.454;2023-07-08T07:57:23;7.32;;;3.00;;
6537;SDS011;3302;52.508;13.454;2023-07-08T07:59:49;3.92;;;3.10;;
6537;SDS011;3302;52.508;13.454;2023-07-08T08:02:15;4.03;;;2.97;;
6537;SDS011;3302;52.508;13.454;2023-07-08T08:04:41;4.35;;;2.90;;
6537;SDS011;3302;52.508;13.454;2023-07-08T08:07:07;3.10;;;2.75;;
6537;SDS011;3302;52.508;13.454;2023-07-08T08:09:33;4.10;;;3.30;;
6537;SDS011;3302;52.508;13.454;2023-07-08T08:12:00;5.50;;;2.97;;
6537;SDS011;3302;52.508;13.454;2023-07-08T08:14:27;3.20;;;2.90;;
6537;SDS011;3302;52.508;13.454;2023-07-08T08:16:52;4.05;;;2.90;;
6537;SDS011;3302;52.508;13.454;2023-07-08T08:19:18;4.50;;;3.17;;
6537;SDS011;3302;52.508;13.454;2023-07-08T08:21:44;3.30;;;2.80;;
6537;SDS011;3302;52.508;13.454;2023-07-08T08:24:10;2.90;;;2.65;;
6537;SDS011;3302;52.508;13.454;2023-07-08T08:26:35;5.65;;;3.38;;
6537;SDS011;3302;52.508;13.454;2023-07-08T08:29:01;2.95;;;2.65;;
6537;SDS011;3302;52.508;13.454;2023-07-08T08:31:27;3.70;;;2.80;;
6537;SDS011;3302;52.508;13.454;2023-07-08T08:33:53;2.90;;;2.60;;
6537;SDS011;3302;52.508;13.454;2023-07-08T08:36:19;3.33;;;2.60;;
6537;SDS011;3302;52.508;13.454;2023-07-08T08:38:46;3.25;;;2.47;;
6537;SDS011;3302;52.508;13.454;2023-07-08T08:41:12;3.58;;;2.70;;
6537;SDS011;3302;52.508;13.454;2023-07-08T08:43:39;3.40;;;3.00;;
6537;SDS011;3302;52.508;13.454;2023-07-08T08:48:54;4.35;;;3.10;;
6537;SDS011;3302;52.508;13.454;2023-07-08T08:51:30;3.30;;;3.00;;
6537;SDS011;3302;52.508;13.454;2023-07-08T08:53:57;3.17;;;2.75;;
6537;SDS011;3302;52.508;13.454;2023-07-08T08:56:25;4.32;;;2.80;;
6537;SDS011;3302;52.508;13.454;2023-07-08T08:59:16;2.97;;;2.60;;
6537;SDS011;3302;52.508;13.454;2023-07-08T09:01:56;3.15;;;2.70;;
6537;SDS011;3302;52.508;13.454;2023-07-08T09:04:24;6.28;;;2.90;;
6537;SDS011;3302;52.508;13.454;2023-07-08T09:07:00;5.55;;;2.80;;
6537;SDS011;3302;52.508;13.454;2023-07-08T09:12:05;3.92;;;3.05;;
6537;SDS011;3302;52.508;13.454;2023-07-08T09:14:35;2.60;;;2.38;;
6537;SDS011;3302;52.508;13.454;2023-07-08T09:25:25;2.40;;;2.20;;
6537;SDS011;3302;52.508;13.454;2023-07-08T09:27:59;3.08;;;2.30;;
6537;SDS011;3302;52.508;13.454;2023-07-08T09:30:25;3.17;;;2.13;;
6537;SDS011;3302;52.508;13.454;2023-07-08T09:32:54;3.08;;;2.22;;
6537;SDS011;3302;52.508;13.454;2023-07-08T09:35:24;2.97;;;2.60;;
6537;SDS011;3302;52.508;13.454;2023-07-08T09:38:02;6.57;;;2.85;;
6537;SDS011;3302;52.508;13.454;2023-07-08T09:40:42;3.83;;;2.92;;
6537;SDS011;3302;52.508;13.454;2023-07-08T09:45:42;3.10;;;2.42;;
6537;SDS011;3302;52.508;13.454;2023-07-08T09:48:18;2.95;;;2.65;;
6537;SDS011;3302;52.508;13.454;2023-07-08T09:50:49;3.83;;;2.63;;
6537;SDS011;3302;52.508;13.454;2023-07-08T09:53:17;4.13;;;2.67;;
6537;SDS011;3302;52.508;13.454;2023-07-08T09:55:43;2.63;;;2.28;;
6537;SDS011;3302;52.508;13.454;2023-07-08T09:58:11;6.32;;;4.05;;
6537;SDS011;3302;52.508;13.454;2023-07-08T10:00:41;6.85;;;6.13;;
6537;SDS011;3302;52.508;13.454;2023-07-08T10:03:20;3.65;;;2.33;;
6537;SDS011;3302;52.508;13.454;2023-07-08T10:05:49;2.72;;;2.38;;
6537;SDS011;3302;52.508;13.454;2023-07-08T10:08:18;2.80;;;2.55;;
6537;SDS011;3302;52.508;13.454;2023-07-08T10:10:46;4.50;;;2.92;;
6537;SDS011;3302;52.508;13.454;2023-07-08T10:16:13;2.40;;;2.20;;
6537;SDS011;3302;52.508;13.454;2023-07-08T10:18:45;2.40;;;2.13;;
6537;SDS011;3302;52.508;13.454;2023-07-08T10:27:01;2.33;;;2.10;;
6537;SDS011;3302;52.508;13.454;2023-07-08T10:29:53;3.28;;;2.60;;
6537;SDS011;3302;52.508;13.454;2023-07-08T10:34:54;3.22;;;2.30;;
6537;SDS011;3302;52.508;13.454;2023-07-08T10:37:36;2.80;;;2.60;;
6537;SDS011;3302;52.508;13.454;2023-07-08T10:40:46;3.00;;;2.47;;
6537;SDS011;3302;52.508;13.454;2023-07-08T10:43:27;2.45;;;2.17;;
6537;SDS011;3302;52.508;13.454;2023-07-08T10:56:55;4.38;;;2.17;;
6537;SDS011;3302;52.508;13.454;2023-07-08T10:59:44;2.88;;;2.65;;
6537;SDS011;3302;52.508;13.454;2023-07-08T11:02:19;2.70;;;2.40;;
6537;SDS011;3302;52.508;13.454;2023-07-08T11:07:43;2.70;;;2.30;;
6537;SDS011;3302;52.508;13.454;2023-07-08T11:10:21;3.58;;;2.85;;
6537;SDS011;3302;52.508;13.454;2023-07-08T11:12:59;3.22;;;2.92;;
6537;SDS011;3302;52.508;13.454;2023-07-08T11:15:40;2.97;;;2.65;;
6537;SDS011;3302;52.508;13.454;2023-07-08T11:21:02;4.40;;;2.30;;
6537;SDS011;3302;52.508;13.454;2023-07-08T11:26:07;3.95;;;2.55;;
6537;SDS011;3302;52.508;13.454;2023-07-08T11:28:39;3.53;;;2.20;;
6537;SDS011;3302;52.508;13.454;2023-07-08T11:31:05;4.93;;;2.90;;
6537;SDS011;3302;52.508;13.454;2023-07-08T11:33:31;4.90;;;3.30;;
6537;SDS011;3302;52.508;13.454;2023-07-08T11:35:58;3.20;;;2.45;;
6537;SDS011;3302;52.508;13.454;2023-07-08T11:38:26;2.88;;;2.50;;
6537;SDS011;3302;52.508;13.454;2023-07-08T11:41:02;4.57;;;2.83;;
6537;SDS011;3302;52.508;13.454;2023-07-08T11:46:25;3.20;;;2.67;;
6537;SDS011;3302;52.508;13.454;2023-07-08T11:48:56;4.30;;;2.70;;
6537;SDS011;3302;52.508;13.454;2023-07-08T11:51:28;3.08;;;2.50;;
6537;SDS011;3302;52.508;13.454;2023-07-08T11:59:23;3.30;;;2.75;;
6537;SDS011;3302;52.508;13.454;2023-07-08T12:10:00;2.40;;;2.20;;
6537;SDS011;3302;52.508;13.454;2023-07-08T12:12:51;3.42;;;2.67;;
6537;SDS011;3302;52.508;13.454;2023-07-08T12:17:52;3.45;;;2.80;;
6537;SDS011;3302;52.508;13.454;2023-07-08T12:20:29;3.42;;;2.70;;
6537;SDS011;3302;52.508;13.454;2023-07-08T12:22:57;3.20;;;2.80;;
6537;SDS011;3302;52.508;13.454;2023-07-08T12:25:26;2.97;;;2.67;;
6537;SDS011;3302;52.508;13.454;2023-07-08T12:27:56;3.42;;;2.63;;
6537;SDS011;3302;52.508;13.454;2023-07-08T12:30:22;3.65;;;2.40;;
6537;SDS011;3302;52.508;13.454;2023-07-08T12:32:50;3.35;;;2.65;;
6537;SDS011;3302;52.508;13.454;2023-07-08T12:37:51;2.60;;;2.40;;
6537;SDS011;3302;52.508;13.454;2023-07-08T12:40:20;3.60;;;2.60;;
6537;SDS011;3302;52.508;13.454;2023-07-08T12:42:46;3.42;;;3.10;;
6537;SDS011;3302;52.508;13.454;2023-07-08T12:45:13;4.15;;;2.67;;
6537;SDS011;3302;52.508;13.454;2023-07-08T12:47:45;3.10;;;2.80;;
6537;SDS011;3302;52.508;13.454;2023-07-08T12:50:12;5.30;;;2.65;;
6537;SDS011;3302;52.508;13.454;2023-07-08T12:52:38;3.88;;;2.85;;
6537;SDS011;3302;52.508;13.454;2023-07-08T12:55:05;3.35;;;3.08;;
6537;SDS011;3302;52.508;13.454;2023-07-08T12:57:33;3.20;;;2.72;;
6537;SDS011;3302;52.508;13.454;2023-07-08T12:59:59;3.28;;;2.70;;
6537;SDS011;3302;52.508;13.454;2023-07-08T13:02:26;3.38;;;3.08;;
6537;SDS011;3302;52.508;13.454;2023-07-08T13:04:55;3.75;;;2.60;;
6537;SDS011;3302;52.508;13.454;2023-07-08T13:07:37;3.80;;;2.67;;
6537;SDS011;3302;52.508;13.454;2023-07-08T13:10:06;2.72;;;2.50;;
6537;SDS011;3302;52.508;13.454;2023-07-08T13:12:40;4.50;;;3.65;;
6537;SDS011;3302;52.508;13.454;2023-07-08T13:15:10;3.03;;;2.67;;
6537;SDS011;3302;52.508;13.454;2023-07-08T13:17:46;3.30;;;2.78;;
6537;SDS011;3302;52.508;13.454;2023-07-08T13:20:13;2.70;;;2.40;;
6537;SDS011;3302;52.508;13.454;2023-07-08T13:22:41;3.80;;;3.00;;
6537;SDS011;3302;52.508;13.454;2023-07-08T13:25:18;2.90;;;2.70;;
6537;SDS011;3302;52.508;13.454;2023-07-08T13:27:55;3.22;;;2.92;;
6537;SDS011;3302;52.508;13.454;2023-07-08T13:30:24;3.60;;;3.30;;
6537;SDS011;3302;52.508;13.454;2023-07-08T13:32:55;3.83;;;3.53;;
6537;SDS011;3302;52.508;13.454;2023-07-08T13:35:23;3.45;;;3.03;;
6537;SDS011;3302;52.508;13.454;2023-07-08T13:37:52;3.67;;;2.90;;
6537;SDS011;3302;52.508;13.454;2023-07-08T13:40:18;3.53;;;2.80;;
6537;SDS011;3302;52.508;13.454;2023-07-08T13:42:51;4.43;;;3.03;;
6537;SDS011;3302;52.508;13.454;2023-07-08T13:45:19;3.67;;;3.10;;
6537;SDS011;3302;52.508;13.454;2023-07-08T13:50:48;3.80;;;2.80;;
6537;SDS011;3302;52.508;13.454;2023-07-08T13:53:23;3.15;;;2.75;;
6537;SDS011;3302;52.508;13.454;2023-07-08T13:55:58;3.33;;;2.90;;
6537;SDS011;3302;52.508;13.454;2023-07-08T13:58:28;3.17;;;2.88;;
6537;SDS011;3302;52.508;13.454;2023-07-08T14:00:55;4.05;;;2.80;;
6537;SDS011;3302;52.508;13.454;2023-07-08T14:03:22;3.53;;;2.60;;
6537;SDS011;3302;52.508;13.454;2023-07-08T14:05:49;5.30;;;3.60;;
6537;SDS011;3302;52.508;13.454;2023-07-08T14:08:15;3.83;;;2.72;;
6537;SDS011;3302;52.508;13.454;2023-07-08T14:10:43;3.15;;;2.72;;
6537;SDS011;3302;52.508;13.454;2023-07-08T14:13:10;3.33;;;3.03;;
6537;SDS011;3302;52.508;13.454;2023-07-08T14:15:36;2.90;;;2.65;;
6537;SDS011;3302;52.508;13.454;2023-07-08T14:18:05;3.00;;;2.70;;
6537;SDS011;3302;52.508;13.454;2023-07-08T14:20:33;3.35;;;3.00;;
6537;SDS011;3302;52.508;13.454;2023-07-08T14:22:59;3.28;;;2.97;;
6537;SDS011;3302;52.508;13.454;2023-07-08T14:25:25;4.80;;;2.83;;
6537;SDS011;3302;52.508;13.454;2023-07-08T14:27:51;4.07;;;3.08;;
6537;SDS011;3302;52.508;13.454;2023-07-08T14:30:17;2.88;;;2.67;;
6537;SDS011;3302;52.508;13.454;2023-07-08T14:32:43;3.08;;;2.78;;
6537;SDS011;3302;52.508;13.454;2023-07-08T14:35:18;3.85;;;2.92;;
6537;SDS011;3302;52.508;13.454;2023-07-08T14:37:50;3.00;;;2.70;;
6537;SDS011;3302;52.508;13.454;2023-07-08T14:40:21;3.58;;;2.70;;
6537;SDS011;3302;52.508;13.454;2023-07-08T14:42:54;3.63;;;3.20;;
6537;SDS011;3302;52.508;13.454;2023-07-08T14:45:24;2.92;;;2.70;;
6537;SDS011;3302;52.508;13.454;2023-07-08T14:47:50;3.53;;;2.92;;
6537;SDS011;3302;52.508;13.454;2023-07-08T14:50:16;5.93;;;2.97;;
6537;SDS011;3302;52.508;13.454;2023-07-08T14:52:42;4.22;;;2.97;;
6537;SDS011;3302;52.508;13.454;2023-07-08T14:55:08;2.70;;;2.50;;
6537;SDS011;3302;52.508;13.454;2023-07-08T14:57:40;4.22;;;2.72;;
6537;SDS011;3302;52.508;13.454;2023-07-08T15:00:16;3.30;;;3.00;;
6537;SDS011;3302;52.508;13.454;2023-07-08T15:02:44;4.40;;;3.25;;
6537;SDS011;3302;52.508;13.454;2023-07-08T15:05:19;3.92;;;2.85;;
6537;SDS011;3302;52.508;13.454;2023-07-08T15:07:50;4.28;;;3.10;;
6537;SDS011;3302;52.508;13.454;2023-07-08T15:10:17;3.47;;;3.05;;
6537;SDS011;3302;52.508;13.454;2023-07-08T15:12:45;8.18;;;7.45;;
6537;SDS011;3302;52.508;13.454;2023-07-08T15:15:15;3.42;;;3.13;;
6537;SDS011;3302;52.508;13.454;2023-07-08T15:17:43;3.97;;;2.90;;
6537;SDS011;3302;52.508;13.454;2023-07-08T15:20:11;3.15;;;2.65;;
6537;SDS011;3302;52.508;13.454;2023-07-08T15:22:38;4.40;;;3.03;;
6537;SDS011;3302;52.508;13.454;2023-07-08T15:25:06;5.10;;;3.13;;
6537;SDS011;3302;52.508;13.454;2023-07-08T15:27:33;4.45;;;2.85;;
6537;SDS011;3302;52.508;13.454;2023-07-08T15:29:59;3.08;;;2.78;;
6537;SDS011;3302;52.508;13.454;2023-07-08T15:32:25;4.30;;;2.90;;
6537;SDS011;3302;52.508;13.454;2023-07-08T15:34:51;3.30;;;2.78;;
6537;SDS011;3302;52.508;13.454;2023-07-08T15:37:18;4.80;;;3.20;;
6537;SDS011;3302;52.508;13.454;2023-07-08T15:39:44;4.38;;;2.90;;
6537;SDS011;3302;52.508;13.454;2023-07-08T15:42:11;3.60;;;3.30;;
6537;SDS011;3302;52.508;13.454;2023-07-08T15:44:38;3.40;;;3.10;;
6537;SDS011;3302;52.508;13.454;2023-07-08T15:47:04;2.95;;;2.60;;
6537;SDS011;3302;52.508;13.454;2023-07-08T15:49:36;3.00;;;2.67;;
6537;SDS011;3302;52.508;13.454;2023-07-08T15:52:02;4.32;;;3.92;;
6537;SDS011;3302;52.508;13.454;2023-07-08T15:54:28;3.45;;;2.80;;
6537;SDS011;3302;52.508;13.454;2023-07-08T15:56:54;3.22;;;2.92;;
6537;SDS011;3302;52.508;13.454;2023-07-08T15:59:21;4.45;;;3.20;;
6537;SDS011;3302;52.508;13.454;2023-07-08T16:01:51;3.97;;;3.17;;
6537;SDS011;3302;52.508;13.454;2023-07-08T16:04:25;3.67;;;3.10;;
6537;SDS011;3302;52.508;13.454;2023-07-08T16:06:55;3.50;;;3.00;;
6537;SDS011;3302;52.508;13.454;2023-07-08T16:09:21;3.58;;;3.28;;
6537;SDS011;3302;52.508;13.454;2023-07-08T16:11:47;3.40;;;3.10;;
6537;SDS011;3302;52.508;13.454;2023-07-08T16:14:13;4.65;;;3.65;;
6537;SDS011;3302;52.508;13.454;2023-07-08T16:16:41;3.38;;;2.90;;
6537;SDS011;3302;52.508;13.454;2023-07-08T16:19:11;3.45;;;3.15;;
6537;SDS011;3302;52.508;13.454;2023-07-08T16:21:38;4.25;;;3.30;;
6537;SDS011;3302;52.508;13.454;2023-07-08T16:24:05;3.17;;;2.88;;
6537;SDS011;3302;52.508;13.454;2023-07-08T16:26:31;3.03;;;2.80;;